sensor_id;sensor_type;location;lat;lon;timestamp;temperature;humidity
54578;DHT22;40474;49.330;8.130;2022-09-02T00:02:08;18.20;88.60
54578;DHT22;40474;49.330;8.130;2022-09-02T00:04:35;18.10;88.50
54578;DHT22;40474;49.330;8.130;2022-09-02T00:07:03;18.00;89.40
54578;DHT22;40474;49.330;8.130;2022-09-02T00:09:29;18.10;89.60
54578;DHT22;40474;49.330;8.130;2022-09-02T00:11:56;18.00;88.80
54578;DHT22;40474;49.330;8.130;2022-09-02T00:14:26;17.90;89.90
54578;DHT22;40474;49.330;8.130;2022-09-02T00:16:53;17.80;90.30
54578;DHT22;40474;49.330;8.130;2022-09-02T00:19:22;17.80;90.30
54578;DHT22;40474;49.330;8.130;2022-09-02T00:21:50;17.70;90.80
54578;DHT22;40474;49.330;8.130;2022-09-02T00:24:17;17.60;91.00
54578;DHT22;40474;49.330;8.130;2022-09-02T00:26:44;17.60;91.30
54578;DHT22;40474;49.330;8.130;2022-09-02T00:29:11;17.50;91.10
54578;DHT22;40474;49.330;8.130;2022-09-02T00:31:40;17.50;91.40
54578;DHT22;40474;49.330;8.130;2022-09-02T00:34:08;17.50;91.00
54578;DHT22;40474;49.330;8.130;2022-09-02T00:36:35;17.40;91.40
54578;DHT22;40474;49.330;8.130;2022-09-02T00:39:02;17.40;91.50
54578;DHT22;40474;49.330;8.130;2022-09-02T00:41:30;17.30;91.50
54578;DHT22;40474;49.330;8.130;2022-09-02T00:43:59;17.30;91.40
54578;DHT22;40474;49.330;8.130;2022-09-02T00:46:27;17.30;91.60
54578;DHT22;40474;49.330;8.130;2022-09-02T00:48:58;17.20;91.70
54578;DHT22;40474;49.330;8.130;2022-09-02T00:51:26;17.10;92.00
54578;DHT22;40474;49.330;8.130;2022-09-02T00:53:54;17.10;91.80
54578;DHT22;40474;49.330;8.130;2022-09-02T00:56:22;17.00;92.20
54578;DHT22;40474;49.330;8.130;2022-09-02T00:58:50;17.00;92.70
54578;DHT22;40474;49.330;8.130;2022-09-02T01:01:17;16.90;92.60
54578;DHT22;40474;49.330;8.130;2022-09-02T01:03:44;16.90;92.70
54578;DHT22;40474;49.330;8.130;2022-09-02T01:06:11;16.90;92.30
54578;DHT22;40474;49.330;8.130;2022-09-02T01:08:45;17.00;92.50
54578;DHT22;40474;49.330;8.130;2022-09-02T01:11:12;17.00;91.80
54578;DHT22;40474;49.330;8.130;2022-09-02T01:13:40;17.10;91.90
54578;DHT22;40474;49.330;8.130;2022-09-02T01:16:12;17.10;91.90
54578;DHT22;40474;49.330;8.130;2022-09-02T01:18:41;17.10;92.20
54578;DHT22;40474;49.330;8.130;2022-09-02T01:21:10;17.00;92.40
54578;DHT22;40474;49.330;8.130;2022-09-02T01:23:37;17.00;92.40
54578;DHT22;40474;49.330;8.130;2022-09-02T01:26:05;17.00;92.70
54578;DHT22;40474;49.330;8.130;2022-09-02T01:28:33;17.00;92.70
54578;DHT22;40474;49.330;8.130;2022-09-02T01:31:00;16.90;92.70
54578;DHT22;40474;49.330;8.130;2022-09-02T01:33:27;17.00;92.50
54578;DHT22;40474;49.330;8.130;2022-09-02T01:35:56;16.90;92.60
54578;DHT22;40474;49.330;8.130;2022-09-02T01:38:23;16.90;92.70
54578;DHT22;40474;49.330;8.130;2022-09-02T01:40:50;16.90;92.50
54578;DHT22;40474;49.330;8.130;2022-09-02T01:43:19;16.90;92.70
54578;DHT22;40474;49.330;8.130;2022-09-02T01:45:47;16.80;92.60
54578;DHT22;40474;49.330;8.130;2022-09-02T01:48:14;16.80;92.70
54578;DHT22;40474;49.330;8.130;2022-09-02T01:50:49;16.80;93.20
54578;DHT22;40474;49.330;8.130;2022-09-02T01:53:16;16.80;92.40
54578;DHT22;40474;49.330;8.130;2022-09-02T01:55:43;16.70;93.10
54578;DHT22;40474;49.330;8.130;2022-09-02T01:58:09;16.70;93.20
54578;DHT22;40474;49.330;8.130;2022-09-02T02:00:36;16.70;93.20
54578;DHT22;40474;49.330;8.130;2022-09-02T02:03:03;16.70;93.00
54578;DHT22;40474;49.330;8.130;2022-09-02T02:05:30;16.60;93.10
54578;DHT22;40474;49.330;8.130;2022-09-02T02:07:57;16.60;93.40
54578;DHT22;40474;49.330;8.130;2022-09-02T02:10:24;16.60;93.10
54578;DHT22;40474;49.330;8.130;2022-09-02T02:12:50;16.60;92.80
54578;DHT22;40474;49.330;8.130;2022-09-02T02:15:18;16.60;93.20
54578;DHT22;40474;49.330;8.130;2022-09-02T02:17:45;16.50;93.60
54578;DHT22;40474;49.330;8.130;2022-09-02T02:20:13;16.50;93.00
54578;DHT22;40474;49.330;8.130;2022-09-02T02:22:43;16.40;93.70
54578;DHT22;40474;49.330;8.130;2022-09-02T02:25:10;16.40;93.60
54578;DHT22;40474;49.330;8.130;2022-09-02T02:27:37;16.40;93.60
54578;DHT22;40474;49.330;8.130;2022-09-02T02:30:04;16.40;94.10
54578;DHT22;40474;49.330;8.130;2022-09-02T02:32:32;16.40;93.80
54578;DHT22;40474;49.330;8.130;2022-09-02T02:34:59;16.30;93.70
54578;DHT22;40474;49.330;8.130;2022-09-02T02:37:26;16.30;93.90
54578;DHT22;40474;49.330;8.130;2022-09-02T02:39:53;16.30;93.60
54578;DHT22;40474;49.330;8.130;2022-09-02T02:42:20;16.20;94.10
54578;DHT22;40474;49.330;8.130;2022-09-02T02:44:46;16.20;94.20
54578;DHT22;40474;49.330;8.130;2022-09-02T02:47:13;16.10;93.80
54578;DHT22;40474;49.330;8.130;2022-09-02T02:49:42;16.10;94.10
54578;DHT22;40474;49.330;8.130;2022-09-02T02:52:10;16.10;94.50
54578;DHT22;40474;49.330;8.130;2022-09-02T02:54:37;16.00;94.30
54578;DHT22;40474;49.330;8.130;2022-09-02T02:57:04;16.00;94.20
54578;DHT22;40474;49.330;8.130;2022-09-02T02:59:31;16.00;94.30
54578;DHT22;40474;49.330;8.130;2022-09-02T03:01:58;16.10;94.30
54578;DHT22;40474;49.330;8.130;2022-09-02T03:04:26;16.00;94.20
54578;DHT22;40474;49.330;8.130;2022-09-02T03:06:53;16.00;94.50
54578;DHT22;40474;49.330;8.130;2022-09-02T03:09:20;15.90;94.60
54578;DHT22;40474;49.330;8.130;2022-09-02T03:11:48;15.90;94.60
54578;DHT22;40474;49.330;8.130;2022-09-02T03:14:15;15.90;94.60
54578;DHT22;40474;49.330;8.130;2022-09-02T03:16:45;15.70;94.80
54578;DHT22;40474;49.330;8.130;2022-09-02T03:19:12;15.70;94.90
54578;DHT22;40474;49.330;8.130;2022-09-02T03:21:40;15.70;94.80
54578;DHT22;40474;49.330;8.130;2022-09-02T03:24:07;15.60;95.10
54578;DHT22;40474;49.330;8.130;2022-09-02T03:26:34;15.60;94.80
54578;DHT22;40474;49.330;8.130;2022-09-02T03:29:00;15.60;94.90
54578;DHT22;40474;49.330;8.130;2022-09-02T03:31:27;15.60;95.20
54578;DHT22;40474;49.330;8.130;2022-09-02T03:33:54;15.50;95.40
54578;DHT22;40474;49.330;8.130;2022-09-02T03:36:28;15.40;95.40
54578;DHT22;40474;49.330;8.130;2022-09-02T03:38:55;15.50;95.30
54578;DHT22;40474;49.330;8.130;2022-09-02T03:41:22;15.50;95.50
54578;DHT22;40474;49.330;8.130;2022-09-02T03:43:49;15.40;95.50
54578;DHT22;40474;49.330;8.130;2022-09-02T03:46:16;15.40;95.30
54578;DHT22;40474;49.330;8.130;2022-09-02T03:48:44;15.40;95.50
54578;DHT22;40474;49.330;8.130;2022-09-02T03:51:12;15.40;95.50
54578;DHT22;40474;49.330;8.130;2022-09-02T03:53:39;15.30;95.20
54578;DHT22;40474;49.330;8.130;2022-09-02T03:56:08;15.30;95.50
54578;DHT22;40474;49.330;8.130;2022-09-02T03:58:40;15.30;95.50
54578;DHT22;40474;49.330;8.130;2022-09-02T04:01:11;15.30;94.90
54578;DHT22;40474;49.330;8.130;2022-09-02T04:03:38;15.40;95.30
54578;DHT22;40474;49.330;8.130;2022-09-02T04:06:07;15.30;95.50
54578;DHT22;40474;49.330;8.130;2022-09-02T04:08:35;15.30;95.50
54578;DHT22;40474;49.330;8.130;2022-09-02T04:11:06;15.20;95.70
54578;DHT22;40474;49.330;8.130;2022-09-02T04:13:34;15.20;95.50
54578;DHT22;40474;49.330;8.130;2022-09-02T04:16:05;15.20;95.70
54578;DHT22;40474;49.330;8.130;2022-09-02T04:18:36;15.10;95.80
54578;DHT22;40474;49.330;8.130;2022-09-02T04:21:02;15.20;95.70
54578;DHT22;40474;49.330;8.130;2022-09-02T04:23:30;15.10;95.60
54578;DHT22;40474;49.330;8.130;2022-09-02T04:25:57;15.20;95.10
54578;DHT22;40474;49.330;8.130;2022-09-02T04:28:25;15.20;95.70
54578;DHT22;40474;49.330;8.130;2022-09-02T04:30:51;15.10;95.40
54578;DHT22;40474;49.330;8.130;2022-09-02T04:33:18;15.20;95.70
54578;DHT22;40474;49.330;8.130;2022-09-02T04:35:46;15.10;95.80
54578;DHT22;40474;49.330;8.130;2022-09-02T04:38:15;15.10;95.80
54578;DHT22;40474;49.330;8.130;2022-09-02T04:40:42;15.10;95.60
54578;DHT22;40474;49.330;8.130;2022-09-02T04:43:09;15.10;95.50
54578;DHT22;40474;49.330;8.130;2022-09-02T04:45:40;15.10;95.50
54578;DHT22;40474;49.330;8.130;2022-09-02T04:48:07;15.10;95.60
54578;DHT22;40474;49.330;8.130;2022-09-02T04:50:34;15.00;95.70
54578;DHT22;40474;49.330;8.130;2022-09-02T04:53:02;15.10;95.60
54578;DHT22;40474;49.330;8.130;2022-09-02T04:55:29;15.10;95.30
54578;DHT22;40474;49.330;8.130;2022-09-02T04:57:57;15.20;95.40
54578;DHT22;40474;49.330;8.130;2022-09-02T05:00:23;15.30;95.10
54578;DHT22;40474;49.330;8.130;2022-09-02T05:02:52;15.30;95.00
54578;DHT22;40474;49.330;8.130;2022-09-02T05:05:18;15.30;95.10
54578;DHT22;40474;49.330;8.130;2022-09-02T05:07:45;15.30;95.10
54578;DHT22;40474;49.330;8.130;2022-09-02T05:10:12;15.40;95.20
54578;DHT22;40474;49.330;8.130;2022-09-02T05:12:40;15.50;95.50
54578;DHT22;40474;49.330;8.130;2022-09-02T05:15:08;15.40;95.00
54578;DHT22;40474;49.330;8.130;2022-09-02T05:17:35;15.40;95.00
54578;DHT22;40474;49.330;8.130;2022-09-02T05:20:05;15.40;94.80
54578;DHT22;40474;49.330;8.130;2022-09-02T05:22:33;15.60;95.10
54578;DHT22;40474;49.330;8.130;2022-09-02T05:24:59;15.60;94.60
54578;DHT22;40474;49.330;8.130;2022-09-02T05:27:26;15.70;94.30
54578;DHT22;40474;49.330;8.130;2022-09-02T05:29:54;15.80;94.40
54578;DHT22;40474;49.330;8.130;2022-09-02T05:32:21;15.90;94.50
54578;DHT22;40474;49.330;8.130;2022-09-02T05:34:48;16.20;94.30
54578;DHT22;40474;49.330;8.130;2022-09-02T05:37:15;16.50;93.30
54578;DHT22;40474;49.330;8.130;2022-09-02T05:39:42;16.90;93.00
54578;DHT22;40474;49.330;8.130;2022-09-02T05:42:09;17.40;91.60
54578;DHT22;40474;49.330;8.130;2022-09-02T05:44:35;18.10;91.60
54578;DHT22;40474;49.330;8.130;2022-09-02T05:47:02;18.60;90.70
54578;DHT22;40474;49.330;8.130;2022-09-02T05:49:29;19.30;90.00
54578;DHT22;40474;49.330;8.130;2022-09-02T05:51:57;20.40;85.60
54578;DHT22;40474;49.330;8.130;2022-09-02T05:56:51;22.40;78.90
54578;DHT22;40474;49.330;8.130;2022-09-02T05:59:19;23.20;74.50
54578;DHT22;40474;49.330;8.130;2022-09-02T06:01:46;23.70;68.00
54578;DHT22;40474;49.330;8.130;2022-09-02T06:04:14;24.30;63.90
54578;DHT22;40474;49.330;8.130;2022-09-02T06:06:40;24.70;62.10
54578;DHT22;40474;49.330;8.130;2022-09-02T06:09:08;25.10;62.20
54578;DHT22;40474;49.330;8.130;2022-09-02T06:11:36;25.60;58.40
54578;DHT22;40474;49.330;8.130;2022-09-02T06:14:08;25.90;56.00
54578;DHT22;40474;49.330;8.130;2022-09-02T06:16:34;26.20;52.80
54578;DHT22;40474;49.330;8.130;2022-09-02T06:19:01;26.40;53.70
54578;DHT22;40474;49.330;8.130;2022-09-02T06:21:29;27.00;53.30
54578;DHT22;40474;49.330;8.130;2022-09-02T06:23:56;27.30;52.10
54578;DHT22;40474;49.330;8.130;2022-09-02T06:26:23;27.40;49.80
54578;DHT22;40474;49.330;8.130;2022-09-02T06:28:49;27.90;48.80
54578;DHT22;40474;49.330;8.130;2022-09-02T06:31:18;28.00;46.80
54578;DHT22;40474;49.330;8.130;2022-09-02T06:33:45;28.20;45.30
54578;DHT22;40474;49.330;8.130;2022-09-02T06:36:14;28.40;46.00
54578;DHT22;40474;49.330;8.130;2022-09-02T06:38:41;28.50;46.10
54578;DHT22;40474;49.330;8.130;2022-09-02T06:41:15;28.70;44.00
54578;DHT22;40474;49.330;8.130;2022-09-02T06:43:42;28.10;43.90
54578;DHT22;40474;49.330;8.130;2022-09-02T06:46:21;28.20;44.00
54578;DHT22;40474;49.330;8.130;2022-09-02T06:48:47;28.30;44.10
54578;DHT22;40474;49.330;8.130;2022-09-02T06:51:16;28.30;43.80
54578;DHT22;40474;49.330;8.130;2022-09-02T06:53:43;27.50;44.70
54578;DHT22;40474;49.330;8.130;2022-09-02T06:56:10;26.60;46.80
54578;DHT22;40474;49.330;8.130;2022-09-02T06:58:38;25.40;48.90
54578;DHT22;40474;49.330;8.130;2022-09-02T07:01:04;24.10;50.90
54578;DHT22;40474;49.330;8.130;2022-09-02T07:03:32;23.30;53.80
54578;DHT22;40474;49.330;8.130;2022-09-02T07:06:17;22.50;54.80
54578;DHT22;40474;49.330;8.130;2022-09-02T07:08:44;22.00;60.10
54578;DHT22;40474;49.330;8.130;2022-09-02T07:11:22;22.40;64.30
54578;DHT22;40474;49.330;8.130;2022-09-02T07:13:49;24.00;55.30
54578;DHT22;40474;49.330;8.130;2022-09-02T07:16:16;26.40;51.70
54578;DHT22;40474;49.330;8.130;2022-09-02T07:18:52;28.20;45.40
54578;DHT22;40474;49.330;8.130;2022-09-02T07:21:19;29.60;44.40
54578;DHT22;40474;49.330;8.130;2022-09-02T07:23:45;30.50;41.20
54578;DHT22;40474;49.330;8.130;2022-09-02T07:26:13;31.30;40.20
54578;DHT22;40474;49.330;8.130;2022-09-02T07:28:40;31.90;38.80
54578;DHT22;40474;49.330;8.130;2022-09-02T07:31:08;31.30;38.70
54578;DHT22;40474;49.330;8.130;2022-09-02T07:33:35;31.40;39.90
54578;DHT22;40474;49.330;8.130;2022-09-02T07:36:03;31.90;37.60
54578;DHT22;40474;49.330;8.130;2022-09-02T07:38:36;32.60;37.10
54578;DHT22;40474;49.330;8.130;2022-09-02T07:41:03;31.90;37.00
54578;DHT22;40474;49.330;8.130;2022-09-02T07:43:30;32.10;37.10
54578;DHT22;40474;49.330;8.130;2022-09-02T07:45:58;31.70;36.30
54578;DHT22;40474;49.330;8.130;2022-09-02T07:48:26;32.50;39.90
54578;DHT22;40474;49.330;8.130;2022-09-02T07:50:54;33.40;35.80
54578;DHT22;40474;49.330;8.130;2022-09-02T07:53:20;33.70;36.20
54578;DHT22;40474;49.330;8.130;2022-09-02T07:55:47;33.90;34.50
54578;DHT22;40474;49.330;8.130;2022-09-02T07:58:15;33.40;34.20
54578;DHT22;40474;49.330;8.130;2022-09-02T08:00:42;33.80;37.50
54578;DHT22;40474;49.330;8.130;2022-09-02T08:03:09;33.30;34.60
54578;DHT22;40474;49.330;8.130;2022-09-02T08:05:37;33.90;33.70
54578;DHT22;40474;49.330;8.130;2022-09-02T08:08:04;33.70;35.50
54578;DHT22;40474;49.330;8.130;2022-09-02T08:10:32;33.60;33.80
54578;DHT22;40474;49.330;8.130;2022-09-02T08:12:59;32.90;34.70
54578;DHT22;40474;49.330;8.130;2022-09-02T08:15:27;32.50;35.10
54578;DHT22;40474;49.330;8.130;2022-09-02T08:17:54;33.60;36.70
54578;DHT22;40474;49.330;8.130;2022-09-02T08:20:21;33.60;34.00
54578;DHT22;40474;49.330;8.130;2022-09-02T08:22:48;33.80;35.90
54578;DHT22;40474;49.330;8.130;2022-09-02T08:25:35;34.90;34.30
54578;DHT22;40474;49.330;8.130;2022-09-02T08:28:02;34.80;33.60
54578;DHT22;40474;49.330;8.130;2022-09-02T08:30:28;35.10;32.90
54578;DHT22;40474;49.330;8.130;2022-09-02T08:32:55;34.60;34.50
54578;DHT22;40474;49.330;8.130;2022-09-02T08:35:22;34.90;33.30
54578;DHT22;40474;49.330;8.130;2022-09-02T08:37:49;35.10;33.20
54578;DHT22;40474;49.330;8.130;2022-09-02T08:40:20;35.60;32.60
54578;DHT22;40474;49.330;8.130;2022-09-02T08:42:51;35.10;32.60
54578;DHT22;40474;49.330;8.130;2022-09-02T08:45:27;35.00;33.50
54578;DHT22;40474;49.330;8.130;2022-09-02T08:48:01;35.50;33.30
54578;DHT22;40474;49.330;8.130;2022-09-02T08:50:29;35.40;33.50
54578;DHT22;40474;49.330;8.130;2022-09-02T08:53:02;35.40;32.00
54578;DHT22;40474;49.330;8.130;2022-09-02T08:55:32;34.70;32.80
54578;DHT22;40474;49.330;8.130;2022-09-02T08:58:00;34.90;33.80
54578;DHT22;40474;49.330;8.130;2022-09-02T09:00:29;35.00;31.90
54578;DHT22;40474;49.330;8.130;2022-09-02T09:03:11;35.30;33.40
54578;DHT22;40474;49.330;8.130;2022-09-02T09:05:48;35.50;31.60
54578;DHT22;40474;49.330;8.130;2022-09-02T09:10:59;35.00;32.00
54578;DHT22;40474;49.330;8.130;2022-09-02T09:16:04;35.60;31.20
54578;DHT22;40474;49.330;8.130;2022-09-02T09:18:40;36.30;31.40
54578;DHT22;40474;49.330;8.130;2022-09-02T09:21:08;35.70;31.20
54578;DHT22;40474;49.330;8.130;2022-09-02T09:23:37;35.50;31.40
54578;DHT22;40474;49.330;8.130;2022-09-02T09:26:07;35.70;31.20
54578;DHT22;40474;49.330;8.130;2022-09-02T09:28:45;36.10;31.10
54578;DHT22;40474;49.330;8.130;2022-09-02T09:31:22;36.70;31.40
54578;DHT22;40474;49.330;8.130;2022-09-02T09:41:45;36.50;29.90
54578;DHT22;40474;49.330;8.130;2022-09-02T09:47:00;36.50;29.90
54578;DHT22;40474;49.330;8.130;2022-09-02T09:49:28;36.40;30.00
54578;DHT22;40474;49.330;8.130;2022-09-02T09:51:54;37.10;30.90
54578;DHT22;40474;49.330;8.130;2022-09-02T09:54:24;37.60;30.80
54578;DHT22;40474;49.330;8.130;2022-09-02T09:56:50;37.50;30.80
54578;DHT22;40474;49.330;8.130;2022-09-02T09:59:39;37.40;29.30
54578;DHT22;40474;49.330;8.130;2022-09-02T10:02:12;37.90;30.60
54578;DHT22;40474;49.330;8.130;2022-09-02T10:04:45;38.00;30.50
54578;DHT22;40474;49.330;8.130;2022-09-02T10:07:12;37.70;28.90
54578;DHT22;40474;49.330;8.130;2022-09-02T10:09:39;36.90;29.20
54578;DHT22;40474;49.330;8.130;2022-09-02T10:12:10;37.30;31.10
54578;DHT22;40474;49.330;8.130;2022-09-02T10:14:42;37.90;29.50
54578;DHT22;40474;49.330;8.130;2022-09-02T10:22:29;37.10;29.20
54578;DHT22;40474;49.330;8.130;2022-09-02T10:27:51;38.20;28.10
54578;DHT22;40474;49.330;8.130;2022-09-02T10:30:21;37.40;29.30
54578;DHT22;40474;49.330;8.130;2022-09-02T10:46:07;38.10;27.40
54578;DHT22;40474;49.330;8.130;2022-09-02T10:48:40;38.10;27.90
54578;DHT22;40474;49.330;8.130;2022-09-02T10:51:14;37.80;27.80
54578;DHT22;40474;49.330;8.130;2022-09-02T10:56:40;37.30;31.90
54578;DHT22;40474;49.330;8.130;2022-09-02T10:59:10;37.70;28.90
54578;DHT22;40474;49.330;8.130;2022-09-02T11:01:43;38.30;27.50
54578;DHT22;40474;49.330;8.130;2022-09-02T11:06:39;37.70;28.40
54578;DHT22;40474;49.330;8.130;2022-09-02T11:09:36;37.80;28.50
54578;DHT22;40474;49.330;8.130;2022-09-02T11:12:08;38.20;28.00
54578;DHT22;40474;49.330;8.130;2022-09-02T11:17:28;38.90;26.70
54578;DHT22;40474;49.330;8.130;2022-09-02T11:25:22;38.00;26.80
54578;DHT22;40474;49.330;8.130;2022-09-02T11:30:44;39.10;26.60
54578;DHT22;40474;49.330;8.130;2022-09-02T11:35:42;39.00;26.60
54578;DHT22;40474;49.330;8.130;2022-09-02T11:43:43;37.70;29.90
54578;DHT22;40474;49.330;8.130;2022-09-02T11:49:06;37.70;27.20
54578;DHT22;40474;49.330;8.130;2022-09-02T11:51:42;38.40;30.40
54578;DHT22;40474;49.330;8.130;2022-09-02T11:54:13;38.50;29.10
54578;DHT22;40474;49.330;8.130;2022-09-02T11:56:42;38.70;27.30
54578;DHT22;40474;49.330;8.130;2022-09-02T11:59:20;38.70;28.00
54578;DHT22;40474;49.330;8.130;2022-09-02T12:01:51;37.90;27.00
54578;DHT22;40474;49.330;8.130;2022-09-02T12:04:22;37.40;28.00
54578;DHT22;40474;49.330;8.130;2022-09-02T12:07:20;37.60;28.10
54578;DHT22;40474;49.330;8.130;2022-09-02T12:09:58;37.00;27.90
54578;DHT22;40474;49.330;8.130;2022-09-02T12:17:32;37.50;29.10
54578;DHT22;40474;49.330;8.130;2022-09-02T12:20:04;37.40;28.20
54578;DHT22;40474;49.330;8.130;2022-09-02T12:22:34;37.30;30.80
54578;DHT22;40474;49.330;8.130;2022-09-02T12:25:05;37.40;29.90
54578;DHT22;40474;49.330;8.130;2022-09-02T12:33:38;36.70;28.40
54578;DHT22;40474;49.330;8.130;2022-09-02T12:36:05;36.60;28.30
54578;DHT22;40474;49.330;8.130;2022-09-02T12:38:37;36.30;27.70
54578;DHT22;40474;49.330;8.130;2022-09-02T12:43:39;36.60;28.70
54578;DHT22;40474;49.330;8.130;2022-09-02T12:48:38;36.40;29.10
54578;DHT22;40474;49.330;8.130;2022-09-02T12:51:07;36.00;28.20
54578;DHT22;40474;49.330;8.130;2022-09-02T12:53:34;36.50;28.00
54578;DHT22;40474;49.330;8.130;2022-09-02T12:58:40;35.70;29.70
54578;DHT22;40474;49.330;8.130;2022-09-02T13:09:08;36.20;28.90
54578;DHT22;40474;49.330;8.130;2022-09-02T13:11:50;36.00;28.50
54578;DHT22;40474;49.330;8.130;2022-09-02T13:23:18;35.70;28.70
54578;DHT22;40474;49.330;8.130;2022-09-02T13:25:48;35.80;30.90
54578;DHT22;40474;49.330;8.130;2022-09-02T13:30:56;35.50;28.70
54578;DHT22;40474;49.330;8.130;2022-09-02T13:33:25;35.00;30.90
54578;DHT22;40474;49.330;8.130;2022-09-02T13:35:53;34.70;29.70
54578;DHT22;40474;49.330;8.130;2022-09-02T13:38:21;34.60;28.80
54578;DHT22;40474;49.330;8.130;2022-09-02T13:40:49;34.80;29.40
54578;DHT22;40474;49.330;8.130;2022-09-02T13:43:16;35.20;32.60
54578;DHT22;40474;49.330;8.130;2022-09-02T13:45:44;35.10;28.90
54578;DHT22;40474;49.330;8.130;2022-09-02T13:50:41;34.70;29.10
54578;DHT22;40474;49.330;8.130;2022-09-02T13:53:08;34.20;29.20
54578;DHT22;40474;49.330;8.130;2022-09-02T13:55:56;34.50;30.50
54578;DHT22;40474;49.330;8.130;2022-09-02T14:03:49;34.30;34.50
54578;DHT22;40474;49.330;8.130;2022-09-02T14:06:18;33.60;29.20
54578;DHT22;40474;49.330;8.130;2022-09-02T14:08:49;33.40;30.40
54578;DHT22;40474;49.330;8.130;2022-09-02T14:11:17;33.30;29.90
54578;DHT22;40474;49.330;8.130;2022-09-02T14:13:47;32.80;29.70
54578;DHT22;40474;49.330;8.130;2022-09-02T14:16:34;32.90;30.20
54578;DHT22;40474;49.330;8.130;2022-09-02T14:19:08;32.80;33.40
54578;DHT22;40474;49.330;8.130;2022-09-02T14:21:36;32.50;30.30
54578;DHT22;40474;49.330;8.130;2022-09-02T14:24:10;32.00;30.00
54578;DHT22;40474;49.330;8.130;2022-09-02T14:26:40;31.60;30.00
54578;DHT22;40474;49.330;8.130;2022-09-02T14:29:09;31.10;32.00
54578;DHT22;40474;49.330;8.130;2022-09-02T14:31:37;30.50;31.50
54578;DHT22;40474;49.330;8.130;2022-09-02T14:34:13;30.20;32.70
54578;DHT22;40474;49.330;8.130;2022-09-02T14:36:51;29.90;33.40
54578;DHT22;40474;49.330;8.130;2022-09-02T14:39:17;29.50;32.40
54578;DHT22;40474;49.330;8.130;2022-09-02T14:41:46;29.20;35.10
54578;DHT22;40474;49.330;8.130;2022-09-02T14:44:17;29.10;36.80
54578;DHT22;40474;49.330;8.130;2022-09-02T14:46:51;28.80;34.00
54578;DHT22;40474;49.330;8.130;2022-09-02T14:49:30;28.50;34.40
54578;DHT22;40474;49.330;8.130;2022-09-02T14:51:59;28.30;35.30
54578;DHT22;40474;49.330;8.130;2022-09-02T14:57:03;28.00;41.80
54578;DHT22;40474;49.330;8.130;2022-09-02T14:59:30;28.00;35.70
54578;DHT22;40474;49.330;8.130;2022-09-02T15:01:57;27.90;34.30
54578;DHT22;40474;49.330;8.130;2022-09-02T15:04:24;27.70;34.20
54578;DHT22;40474;49.330;8.130;2022-09-02T15:06:51;27.60;34.40
54578;DHT22;40474;49.330;8.130;2022-09-02T15:09:18;27.50;36.60
54578;DHT22;40474;49.330;8.130;2022-09-02T15:11:48;27.40;38.90
54578;DHT22;40474;49.330;8.130;2022-09-02T15:14:16;27.30;36.60
54578;DHT22;40474;49.330;8.130;2022-09-02T15:16:43;27.20;37.10
54578;DHT22;40474;49.330;8.130;2022-09-02T15:19:10;27.20;35.70
54578;DHT22;40474;49.330;8.130;2022-09-02T15:21:37;27.10;37.70
54578;DHT22;40474;49.330;8.130;2022-09-02T15:24:04;27.10;37.30
54578;DHT22;40474;49.330;8.130;2022-09-02T15:26:30;27.00;35.30
54578;DHT22;40474;49.330;8.130;2022-09-02T15:28:57;27.00;36.40
54578;DHT22;40474;49.330;8.130;2022-09-02T15:31:24;26.90;40.90
54578;DHT22;40474;49.330;8.130;2022-09-02T15:33:52;26.90;40.70
54578;DHT22;40474;49.330;8.130;2022-09-02T15:36:18;26.90;37.40
54578;DHT22;40474;49.330;8.130;2022-09-02T15:38:46;26.80;37.30
54578;DHT22;40474;49.330;8.130;2022-09-02T15:41:17;26.80;36.50
54578;DHT22;40474;49.330;8.130;2022-09-02T15:43:45;26.80;37.30
54578;DHT22;40474;49.330;8.130;2022-09-02T15:46:15;26.70;37.40
54578;DHT22;40474;49.330;8.130;2022-09-02T15:48:42;26.70;43.00
54578;DHT22;40474;49.330;8.130;2022-09-02T15:51:10;26.70;41.60
54578;DHT22;40474;49.330;8.130;2022-09-02T15:53:38;26.60;38.30
54578;DHT22;40474;49.330;8.130;2022-09-02T15:56:09;26.60;36.80
54578;DHT22;40474;49.330;8.130;2022-09-02T15:58:40;26.60;38.20
54578;DHT22;40474;49.330;8.130;2022-09-02T16:01:06;26.50;37.70
54578;DHT22;40474;49.330;8.130;2022-09-02T16:03:35;26.40;37.50
54578;DHT22;40474;49.330;8.130;2022-09-02T16:06:05;26.40;38.50
54578;DHT22;40474;49.330;8.130;2022-09-02T16:08:33;26.30;38.60
54578;DHT22;40474;49.330;8.130;2022-09-02T16:11:07;26.30;39.30
54578;DHT22;40474;49.330;8.130;2022-09-02T16:13:34;26.20;37.30
54578;DHT22;40474;49.330;8.130;2022-09-02T16:16:08;26.20;37.00
54578;DHT22;40474;49.330;8.130;2022-09-02T16:18:36;26.10;38.00
54578;DHT22;40474;49.330;8.130;2022-09-02T16:21:04;26.00;37.40
54578;DHT22;40474;49.330;8.130;2022-09-02T16:23:31;26.00;37.90
54578;DHT22;40474;49.330;8.130;2022-09-02T16:26:05;26.00;37.60
54578;DHT22;40474;49.330;8.130;2022-09-02T16:28:39;25.90;38.00
54578;DHT22;40474;49.330;8.130;2022-09-02T16:31:06;25.90;38.80
54578;DHT22;40474;49.330;8.130;2022-09-02T16:33:34;25.80;39.40
54578;DHT22;40474;49.330;8.130;2022-09-02T16:36:01;25.80;38.30
54578;DHT22;40474;49.330;8.130;2022-09-02T16:38:28;25.70;38.60
54578;DHT22;40474;49.330;8.130;2022-09-02T16:40:55;25.70;39.90
54578;DHT22;40474;49.330;8.130;2022-09-02T16:43:22;25.70;38.90
54578;DHT22;40474;49.330;8.130;2022-09-02T16:45:50;25.70;39.50
54578;DHT22;40474;49.330;8.130;2022-09-02T16:48:19;25.70;40.90
54578;DHT22;40474;49.330;8.130;2022-09-02T16:50:51;25.70;40.30
54578;DHT22;40474;49.330;8.130;2022-09-02T16:53:18;25.60;40.00
54578;DHT22;40474;49.330;8.130;2022-09-02T16:55:44;25.60;41.50
54578;DHT22;40474;49.330;8.130;2022-09-02T16:58:12;25.50;41.40
54578;DHT22;40474;49.330;8.130;2022-09-02T17:00:40;25.50;41.30
54578;DHT22;40474;49.330;8.130;2022-09-02T17:03:08;25.40;41.90
54578;DHT22;40474;49.330;8.130;2022-09-02T17:05:35;25.40;43.60
54578;DHT22;40474;49.330;8.130;2022-09-02T17:08:02;25.40;42.50
54578;DHT22;40474;49.330;8.130;2022-09-02T17:10:29;25.30;43.10
54578;DHT22;40474;49.330;8.130;2022-09-02T17:12:56;25.10;42.70
54578;DHT22;40474;49.330;8.130;2022-09-02T17:15:23;25.00;44.40
54578;DHT22;40474;49.330;8.130;2022-09-02T17:17:51;24.90;44.50
54578;DHT22;40474;49.330;8.130;2022-09-02T17:20:18;24.80;45.40
54578;DHT22;40474;49.330;8.130;2022-09-02T17:22:45;24.70;44.90
54578;DHT22;40474;49.330;8.130;2022-09-02T17:25:11;24.60;44.90
54578;DHT22;40474;49.330;8.130;2022-09-02T17:27:38;24.50;46.30
54578;DHT22;40474;49.330;8.130;2022-09-02T17:30:05;24.40;45.90
54578;DHT22;40474;49.330;8.130;2022-09-02T17:32:32;24.30;46.90
54578;DHT22;40474;49.330;8.130;2022-09-02T17:34:59;24.10;46.50
54578;DHT22;40474;49.330;8.130;2022-09-02T17:37:27;24.00;47.30